Time;durP1;ratioP1;P1;durP2;ratioP2;P2;SDS_P1;SDS_P2;PMS_P1;PMS_P2;Temp;Humidity;BMP_temperature;BMP_pressure;BME280_temperature;BME280_humidity;BME280_pressure;Samples;Min_cycle;Max_cycle;Signal;HPM_P1;HPM_P2
2023/02/25 00:03:10;;;;;;;1.60;0.50;;;;;;;6.26;56.22;95905.50;10457571;28;20162;-78
2023/02/25 00:08:31;;;;;;;1.95;0.40;;;;;;;6.28;56.31;95898.03;10470788;28;20110;-78
2023/02/25 00:13:52;;;;;;;1.95;0.50;;;;;;;6.15;56.07;95895.91;10461964;28;20040;-78
2023/02/25 00:19:13;;;;;;;0.85;0.40;;;;;;;5.84;56.30;95906.63;10452893;28;20048;-78
2023/02/25 00:24:34;;;;;;;1.58;0.40;;;;;;;5.55;56.97;95913.31;10447889;28;20385;-79
2023/02/25 00:29:55;;;;;;;2.55;0.70;;;;;;;5.36;57.58;95919.13;10464386;28;20052;-80
2023/02/25 00:35:16;;;;;;;1.42;0.60;;;;;;;5.23;58.82;95928.06;10458610;28;20052;-78
2023/02/25 00:40:38;;;;;;;0.95;0.40;;;;;;;5.40;58.05;95928.41;10456553;28;20482;-77
2023/02/25 00:46:00;;;;;;;2.83;0.57;;;;;;;5.49;58.46;95921.28;10469379;28;20071;-78
2023/02/25 00:51:22;;;;;;;1.05;0.57;;;;;;;5.58;57.64;95925.22;10469275;28;20045;-77
2023/02/25 00:56:43;;;;;;;1.58;0.65;;;;;;;5.57;58.09;95912.72;10455574;28;20044;-78
2023/02/25 01:02:04;;;;;;;1.48;0.50;;;;;;;5.46;57.81;95914.19;10469041;28;20052;-78
2023/02/25 01:07:25;;;;;;;1.83;0.60;;;;;;;5.32;57.74;95910.63;10457000;28;20048;-77
2023/02/25 01:12:47;;;;;;;2.67;0.68;;;;;;;5.22;58.31;95907.25;10471281;28;20041;-78
2023/02/25 01:18:08;;;;;;;1.30;0.55;;;;;;;5.31;58.56;95911.94;10468700;28;20406;-78
2023/02/25 01:23:29;;;;;;;1.48;0.50;;;;;;;5.36;58.79;95908.06;10459171;28;20106;-78
2023/02/25 01:28:50;;;;;;;2.33;0.60;;;;;;;5.37;58.28;95918.53;10476412;28;20070;-78
2023/02/25 01:34:15;;;;;;;3.35;0.75;;;;;;;5.35;58.97;95921.19;10490021;28;20099;-78
2023/02/25 01:39:38;;;;;;;1.50;0.65;;;;;;;5.27;58.84;95915.19;10462301;28;20037;-77
2023/02/25 01:45:17;;;;;;;1.52;0.90;;;;;;;5.27;60.64;95920.00;10489676;28;20441;-78
2023/02/25 01:51:03;;;;;;;0.98;0.68;;;;;;;5.08;62.25;95916.16;10503567;28;20049;-77
2023/02/25 01:56:24;;;;;;;2.17;0.90;;;;;;;4.94;63.48;95922.91;10490842;28;20059;-77
2023/02/25 02:01:45;;;;;;;1.73;0.90;;;;;;;4.78;62.35;95912.31;10461580;28;20146;-78
2023/02/25 02:07:06;;;;;;;1.90;0.85;;;;;;;4.59;63.64;95923.59;10474554;28;20518;-78
2023/02/25 02:12:30;;;;;;;2.88;1.20;;;;;;;4.37;63.72;95916.69;10474828;28;20045;-78
2023/02/25 02:17:58;;;;;;;1.90;1.13;;;;;;;4.25;64.15;95913.91;10475268;28;20509;-77
2023/02/25 02:23:41;;;;;;;1.98;1.05;;;;;;;4.11;64.14;95905.47;10474417;28;20045;-77
2023/02/25 02:29:17;;;;;;;2.03;0.90;;;;;;;4.03;65.08;95910.47;10473952;28;20090;-77
2023/02/25 02:34:51;;;;;;;1.70;0.90;;;;;;;3.93;65.41;95909.84;10502640;28;20090;-78
2023/02/25 02:40:26;;;;;;;1.48;0.85;;;;;;;3.83;65.62;95907.16;10487840;28;20375;-78
2023/02/25 02:46:32;;;;;;;3.05;1.00;;;;;;;3.75;66.72;95906.63;10475139;28;20056;-77
2023/02/25 02:52:07;;;;;;;2.45;1.45;;;;;;;3.65;66.37;95906.72;10487084;28;20114;-77
2023/02/25 02:57:29;;;;;;;2.25;1.17;;;;;;;3.77;67.12;95919.88;10473344;28;20044;-77
2023/02/25 03:02:55;;;;;;;2.33;1.10;;;;;;;3.98;67.20;95931.59;10472990;28;20057;-78
2023/02/25 03:08:22;;;;;;;1.77;0.80;;;;;;;4.17;66.59;95929.97;10472532;28;20043;-77
2023/02/25 03:13:43;;;;;;;1.20;0.80;;;;;;;4.29;66.45;95928.69;10472291;28;20040;-78
2023/02/25 03:19:10;;;;;;;3.03;1.20;;;;;;;4.42;66.93;95926.66;10470018;28;20040;-77
2023/02/25 03:24:44;;;;;;;1.95;1.08;;;;;;;4.40;66.23;95938.31;10472066;28;20094;-77
2023/02/25 03:30:05;;;;;;;2.97;1.15;;;;;;;4.06;66.99;95925.88;10472580;28;20041;-77
2023/02/25 03:35:26;;;;;;;2.58;1.25;;;;;;;3.79;67.86;95925.50;10498162;28;20055;-77
2023/02/25 03:40:47;;;;;;;2.90;0.70;;;;;;;3.65;67.73;95917.03;10456209;28;20403;-77
2023/02/25 03:46:08;;;;;;;2.25;0.40;;;;;;;3.59;67.01;95939.44;10453952;28;20052;-78
2023/02/25 03:51:32;;;;;;;1.10;0.32;;;;;;;3.44;66.78;95946.06;10470649;28;20052;-78
2023/02/25 03:56:52;;;;;;;1.75;0.30;;;;;;;3.31;67.08;95959.66;10458999;28;20041;-78
2023/02/25 04:02:14;;;;;;;1.80;0.30;;;;;;;3.19;67.21;95951.31;10444491;28;20060;-80
2023/02/25 04:07:35;;;;;;;2.30;0.40;;;;;;;3.15;66.67;95951.75;10443961;28;20033;-80
2023/02/25 04:12:56;;;;;;;2.95;0.40;;;;;;;3.13;66.54;95950.91;10537799;27;20071;-80
2023/02/25 04:18:17;;;;;;;2.30;0.40;;;;;;;3.17;66.78;95948.41;10553943;27;20039;-80
2023/02/25 04:23:38;;;;;;;1.42;0.50;;;;;;;3.17;66.38;95951.16;10568858;27;20056;-80
2023/02/25 04:28:59;;;;;;;4.28;0.60;;;;;;;3.17;66.48;95951.88;10564319;27;20435;-80
2023/02/25 04:34:20;;;;;;;2.95;0.50;;;;;;;3.16;66.00;95942.16;10538487;28;20473;-80
2023/02/25 04:39:41;;;;;;;2.38;0.55;;;;;;;3.25;66.23;95937.19;10552358;28;20054;-80
2023/02/25 04:45:02;;;;;;;3.63;0.45;;;;;;;3.34;66.40;95933.66;10532120;28;20056;-80
2023/02/25 04:50:23;;;;;;;1.20;0.35;;;;;;;3.45;66.29;95935.75;10559979;27;20477;-80
2023/02/25 04:55:45;;;;;;;2.95;0.52;;;;;;;3.56;64.89;95942.66;10555968;28;20043;-80
2023/02/25 05:01:08;;;;;;;3.05;0.50;;;;;;;3.63;64.96;95930.69;10563413;27;20036;-81
2023/02/25 05:06:31;;;;;;;1.33;0.45;;;;;;;3.66;64.03;95946.06;10564833;27;20039;-80
2023/02/25 05:11:51;;;;;;;5.10;0.60;;;;;;;3.67;63.91;95934.47;10577163;27;20093;-80
2023/02/25 05:17:14;;;;;;;1.95;0.50;;;;;;;3.51;63.77;95941.69;10549918;27;20043;-80
2023/02/25 05:22:35;;;;;;;0.93;0.30;;;;;;;3.41;63.68;95933.47;10564065;27;20051;-80
2023/02/25 05:27:56;;;;;;;2.92;0.38;;;;;;;3.40;63.92;95932.03;10564207;27;20035;-80
2023/02/25 05:33:17;;;;;;;2.60;0.45;;;;;;;3.41;63.75;95927.22;10579113;27;20488;-80
2023/02/25 05:38:38;;;;;;;0.85;0.20;;;;;;;3.36;63.16;95942.78;10565102;27;20050;-80
2023/02/25 05:44:00;;;;;;;1.80;0.30;;;;;;;3.34;63.61;95944.69;10564025;27;20055;-80
2023/02/25 05:49:21;;;;;;;1.95;0.40;;;;;;;3.35;63.66;95946.84;10560596;27;20088;-80
2023/02/25 05:54:42;;;;;;;2.60;0.40;;;;;;;3.44;63.18;95948.09;10562547;27;20126;-80
2023/02/25 06:00:08;;;;;;;2.47;0.35;;;;;;;3.39;63.04;95949.88;10556788;27;20055;-80
2023/02/25 06:05:32;;;;;;;3.83;0.30;;;;;;;3.39;63.35;95957.44;10577863;27;20438;-79
2023/02/25 06:10:53;;;;;;;1.20;0.30;;;;;;;3.45;62.89;95961.31;10575909;27;20034;-80
2023/02/25 06:16:14;;;;;;;2.35;0.40;;;;;;;3.61;62.56;95955.41;10549432;27;20043;-79
2023/02/25 06:21:35;;;;;;;1.88;0.30;;;;;;;3.61;62.33;95967.16;10537873;27;20036;-80
2023/02/25 06:26:57;;;;;;;3.58;0.40;;;;;;;3.65;62.80;95975.69;10555503;28;20043;-81
2023/02/25 06:32:19;;;;;;;2.78;0.40;;;;;;;3.76;62.25;95970.84;10556414;28;20039;-79
2023/02/25 06:37:40;;;;;;;1.95;0.50;;;;;;;3.83;62.15;95981.69;10541442;28;20035;-79
2023/02/25 06:43:01;;;;;;;1.88;0.40;;;;;;;3.96;61.86;95983.94;10541455;28;20577;-79
2023/02/25 06:48:22;;;;;;;3.53;0.80;;;;;;;4.08;61.69;95978.44;10525634;28;20497;-79
2023/02/25 06:53:43;;;;;;;1.83;0.50;;;;;;;4.36;61.23;95995.38;10540539;28;20092;-79
2023/02/25 06:59:05;;;;;;;2.90;0.50;;;;;;;4.63;60.53;95994.94;10524758;28;20088;-79
2023/02/25 07:04:26;;;;;;;2.30;0.28;;;;;;;4.81;60.30;95993.31;10541978;28;20550;-79
2023/02/25 07:09:47;;;;;;;2.40;0.63;;;;;;;4.83;59.42;96010.75;10527741;28;20042;-79
2023/02/25 07:15:08;;;;;;;3.03;0.57;;;;;;;5.02;58.78;96011.84;10527621;28;20505;-79
2023/02/25 07:20:29;;;;;;;1.70;0.60;;;;;;;4.99;59.02;96018.59;10554817;28;20040;-79
2023/02/25 07:25:50;;;;;;;4.43;0.40;;;;;;;4.88;58.59;96008.97;10538355;28;20043;-79
2023/02/25 07:31:13;;;;;;;2.40;0.45;;;;;;;4.88;58.47;96031.06;10555196;28;20389;-80
2023/02/25 07:36:36;;;;;;;2.47;0.40;;;;;;;4.85;58.42;96035.03;10538455;28;20122;-80
2023/02/25 07:41:57;;;;;;;3.45;0.40;;;;;;;4.88;59.06;96061.50;10540880;28;20432;-79
2023/02/25 07:47:21;;;;;;;2.58;0.30;;;;;;;4.99;59.61;96060.06;10541143;28;20051;-79
2023/02/25 07:52:41;;;;;;;1.10;0.30;;;;;;;5.17;60.50;96075.75;10537987;28;20512;-79
2023/02/25 07:58:03;;;;;;;2.22;0.45;;;;;;;5.34;59.91;96085.75;10568890;28;20079;-79
2023/02/25 08:03:26;;;;;;;1.80;0.40;;;;;;;5.30;61.23;96077.19;10541673;28;20043;-77
2023/02/25 08:08:49;;;;;;;3.00;0.30;;;;;;;5.32;61.70;96090.44;10554282;28;20473;-77
2023/02/25 08:14:10;;;;;;;2.13;0.50;;;;;;;5.44;61.72;96102.25;10539891;28;20447;-77
2023/02/25 08:19:31;;;;;;;2.22;0.40;;;;;;;5.44;62.21;96105.75;10548558;28;20114;-77
2023/02/25 08:24:53;;;;;;;1.30;0.32;;;;;;;5.59;62.30;96103.81;10523638;28;20670;-77
2023/02/25 08:30:14;;;;;;;2.25;0.45;;;;;;;5.60;61.93;96102.50;10554682;28;20036;-76
2023/02/25 08:35:34;;;;;;;2.72;0.40;;;;;;;5.89;61.75;96111.19;10554942;28;20043;-77
2023/02/25 08:40:59;;;;;;;2.65;0.50;;;;;;;6.32;60.50;96111.63;10556847;28;20374;-76
2023/02/25 08:46:20;;;;;;;;;;;;;;;6.43;59.93;96110.16;10520004;28;20428;-78
2023/02/25 08:51:41;;;;;;;1.17;0.50;;;;;;;6.87;59.36;96119.53;10553423;28;19923;-79
2023/02/25 08:57:02;;;;;;;1.60;0.30;;;;;;;7.49;58.67;96118.00;10568045;28;20485;-79
2023/02/25 09:02:23;;;;;;;1.17;0.30;;;;;;;7.54;56.64;96125.94;10554729;28;20039;-79
2023/02/25 09:07:44;;;;;;;2.20;0.30;;;;;;;7.18;57.34;96142.06;10552471;28;20115;-79
2023/02/25 09:13:05;;;;;;;1.70;0.35;;;;;;;7.02;57.06;96146.72;10552263;28;20115;-79
2023/02/25 09:18:26;;;;;;;1.67;0.30;;;;;;;6.76;57.40;96150.81;10552188;28;20485;-79
2023/02/25 09:23:50;;;;;;;1.23;0.30;;;;;;;6.68;57.54;96158.66;10535258;28;20089;-79
2023/02/25 09:29:11;;;;;;;1.20;0.40;;;;;;;6.49;57.31;96160.41;10552311;28;20042;-79
2023/02/25 09:34:32;;;;;;;1.13;0.40;;;;;;;6.54;57.46;96170.38;10532689;28;20044;-79
2023/02/25 09:39:53;;;;;;;1.13;0.32;;;;;;;6.60;56.44;96167.25;10537811;28;20051;-77
2023/02/25 09:45:16;;;;;;;1.10;0.30;;;;;;;6.58;56.95;96173.41;10556031;28;20063;-79
2023/02/25 09:50:42;;;;;;;0.40;0.20;;;;;;;6.56;57.59;96176.06;10545745;28;20435;-77
2023/02/25 09:56:04;;;;;;;1.00;0.30;;;;;;;6.92;57.21;96182.22;10531524;28;20504;-79
2023/02/25 10:01:37;;;;;;;0.88;0.30;;;;;;;6.88;56.41;96193.81;10558964;28;20047;-79
2023/02/25 10:07:04;;;;;;;1.13;0.30;;;;;;;6.85;56.89;96189.50;10559025;28;20432;-79
2023/02/25 10:12:55;;;;;;;1.83;0.30;;;;;;;6.94;55.70;96187.88;10547065;28;20063;-80
2023/02/25 10:18:25;;;;;;;0.60;0.20;;;;;;;6.88;55.07;96198.63;10559429;28;20051;-78
2023/02/25 10:24:04;;;;;;;0.75;0.20;;;;;;;7.03;55.87;96194.59;10572389;28;20047;-79
2023/02/25 10:29:34;;;;;;;1.10;0.20;;;;;;;7.31;54.99;96184.34;10557507;28;20051;-79
2023/02/25 10:34:58;;;;;;;0.70;0.30;;;;;;;7.97;54.53;96194.81;10543264;28;20126;-78
2023/02/25 10:40:21;;;;;;;1.30;0.30;;;;;;;8.07;53.37;96198.13;10543474;28;20043;-78
2023/02/25 10:45:43;;;;;;;1.50;0.40;;;;;;;8.12;52.65;96202.59;10543354;28;20507;-77
2023/02/25 10:51:12;;;;;;;0.45;0.30;;;;;;;8.10;53.54;96210.78;10556376;28;20039;-77
2023/02/25 10:56:39;;;;;;;0.32;0.10;;;;;;;8.08;53.71;96212.75;10543491;28;20051;-79
2023/02/25 11:02:00;;;;;;;0.82;0.20;;;;;;;8.12;52.83;96212.97;10528093;28;20046;-77
2023/02/25 11:07:23;;;;;;;0.50;0.20;;;;;;;7.83;53.00;96216.31;10556116;28;20047;-79
2023/02/25 11:12:48;;;;;;;0.65;0.20;;;;;;;7.86;53.80;96210.25;10543468;28;20032;-79
2023/02/25 11:18:26;;;;;;;0.70;0.30;;;;;;;8.48;53.43;96208.59;10535712;28;20036;-80
2023/02/25 11:23:47;;;;;;;1.92;0.30;;;;;;;8.86;53.06;96201.44;10528710;28;20040;-78
2023/02/25 11:29:11;;;;;;;0.93;0.30;;;;;;;8.70;52.18;96222.91;10515200;28;20051;-77
2023/02/25 11:34:33;;;;;;;1.17;0.32;;;;;;;8.31;51.88;96218.16;10501171;28;20040;-77
2023/02/25 11:39:54;;;;;;;0.80;0.20;;;;;;;7.92;51.32;96226.53;10503400;28;20044;-78
2023/02/25 11:45:16;;;;;;;2.70;0.50;;;;;;;7.77;51.53;96235.44;10499623;28;20052;-78
2023/02/25 11:50:44;;;;;;;0.40;0.20;;;;;;;8.03;50.22;96239.63;10500024;28;20043;-78
2023/02/25 11:56:30;;;;;;;0.30;0.20;;;;;;;7.99;49.26;96242.16;10513287;28;20048;-78
2023/02/25 12:02:38;;;;;;;2.00;0.40;;;;;;;8.45;46.70;96227.22;10515023;28;20473;-78
2023/02/25 12:08:18;;;;;;;0.60;0.30;;;;;;;8.47;48.20;96238.44;10527093;28;20051;-77
2023/02/25 12:14:16;;;;;;;0.55;0.30;;;;;;;8.45;48.56;96243.19;10526935;28;20048;-78
2023/02/25 12:20:05;;;;;;;1.38;0.30;;;;;;;8.59;47.65;96249.50;10513925;28;20044;-78
2023/02/25 12:25:44;;;;;;;0.90;0.20;;;;;;;8.48;46.99;96247.50;10527767;28;20073;-78
2023/02/25 12:31:33;;;;;;;2.50;0.40;;;;;;;8.51;46.52;96251.88;10543252;28;20398;-78
2023/02/25 12:37:02;;;;;;;1.05;0.25;;;;;;;8.44;47.14;96250.09;10528138;28;20044;-78
2023/02/25 12:42:42;;;;;;;3.30;0.30;;;;;;;8.35;46.80;96262.13;10513348;28;20110;-78
2023/02/25 12:48:29;;;;;;;1.05;0.45;;;;;;;8.35;46.62;96273.97;10541885;28;20055;-78
2023/02/25 12:54:18;;;;;;;3.05;0.50;;;;;;;8.36;46.35;96277.47;10501343;28;20059;-78
2023/02/25 13:00:08;;;;;;;0.82;0.40;;;;;;;8.29;45.02;96293.81;10502675;28;20065;-78
2023/02/25 13:06:04;;;;;;;1.33;0.30;;;;;;;8.41;44.14;96295.84;10542097;28;20044;-79
2023/02/25 13:11:38;;;;;;;1.52;0.30;;;;;;;8.38;44.53;96297.03;10492287;28;20058;-79
2023/02/25 13:17:34;;;;;;;0.40;0.20;;;;;;;8.44;44.28;96297.38;10528233;28;20040;-78
2023/02/25 13:23:04;;;;;;;0.50;0.20;;;;;;;8.50;43.34;96298.41;10521444;28;20059;-78
2023/02/25 13:28:28;;;;;;;2.13;0.20;;;;;;;8.54;43.80;96309.75;10534849;28;20051;-77
2023/02/25 13:33:52;;;;;;;0.38;0.20;;;;;;;8.61;43.38;96299.66;10535089;28;20101;-77
2023/02/25 13:40:11;;;;;;;0.30;0.20;;;;;;;8.75;42.32;96300.38;10550558;28;20123;-77
2023/02/25 13:45:45;;;;;;;1.92;0.10;;;;;;;9.48;41.54;96286.59;10520109;28;20052;-78
2023/02/25 13:51:06;;;;;;;;;;;;;;;9.59;41.07;96296.16;10521570;28;20044;-77
2023/02/25 13:56:48;;;;;;;0.43;0.20;;;;;;;9.36;41.00;96311.78;10533852;28;20040;-77
2023/02/25 14:02:33;;;;;;;0.20;0.10;;;;;;;8.57;41.34;96316.13;10532550;28;20111;-77
2023/02/25 14:08:06;;;;;;;0.50;0.20;;;;;;;7.97;42.03;96319.88;10519335;28;20040;-79
2023/02/25 14:13:30;;;;;;;2.28;0.30;;;;;;;7.50;42.42;96331.16;10537046;28;20040;-80
2023/02/25 14:19:10;;;;;;;1.25;0.30;;;;;;;7.16;42.99;96322.34;10581993;28;20167;-80
2023/02/25 14:24:37;;;;;;;0.55;0.30;;;;;;;7.23;43.08;96326.16;10578790;28;20035;-79
2023/02/25 14:30:09;;;;;;;0.60;0.20;;;;;;;7.30;43.13;96341.13;10563841;28;20473;-80
2023/02/25 14:35:41;;;;;;;1.63;0.30;;;;;;;7.51;43.12;96349.28;10579854;28;20370;-80
2023/02/25 14:41:19;;;;;;;0.52;0.30;;;;;;;7.35;42.51;96343.53;10566826;28;20036;-79
2023/02/25 14:46:56;;;;;;;0.77;0.20;;;;;;;6.85;42.88;96352.38;10567037;28;20051;-79
2023/02/25 14:52:29;;;;;;;2.63;0.20;;;;;;;6.51;43.16;96364.94;10560488;28;20042;-78
2023/02/25 14:58:28;;;;;;;0.38;0.20;;;;;;;6.14;43.74;96371.00;10545047;28;20051;-78
2023/02/25 15:03:49;;;;;;;0.60;0.20;;;;;;;5.81;44.47;96373.03;10554070;28;20050;-79
2023/02/25 15:09:19;;;;;;;1.20;0.30;;;;;;;5.74;45.17;96377.44;10506910;28;20036;-79
2023/02/25 15:14:50;;;;;;;1.27;0.40;;;;;;;5.92;45.09;96384.19;10507543;28;20440;-78
2023/02/25 15:20:29;;;;;;;1.20;0.50;;;;;;;5.74;45.37;96386.47;10487711;28;20040;-78
2023/02/25 15:26:09;;;;;;;0.93;0.25;;;;;;;5.55;44.82;96402.50;10503269;28;20481;-79
2023/02/25 15:31:32;;;;;;;0.45;0.20;;;;;;;5.60;45.17;96393.16;10505432;28;20042;-78
2023/02/25 15:37:16;;;;;;;1.60;0.30;;;;;;;5.61;45.90;96394.59;10475622;28;20044;-77
2023/02/25 15:42:41;;;;;;;0.88;0.32;;;;;;;5.66;45.59;96391.50;10475599;28;20032;-76
2023/02/25 15:48:16;;;;;;;0.90;0.30;;;;;;;5.95;45.39;96409.94;10509478;28;20051;-76
2023/02/25 15:53:40;;;;;;;1.25;0.35;;;;;;;6.00;45.13;96409.63;10499329;28;20116;-78
2023/02/25 15:59:02;;;;;;;1.00;0.40;;;;;;;5.58;45.43;96424.19;10470526;28;20060;-77
2023/02/25 16:04:42;;;;;;;1.48;0.38;;;;;;;5.21;45.93;96423.09;10470514;28;20071;-77
2023/02/25 16:10:28;;;;;;;1.27;0.52;;;;;;;4.76;46.34;96437.44;10469598;28;20532;-76
2023/02/25 16:15:51;;;;;;;0.70;0.30;;;;;;;4.49;47.25;96456.25;10497196;28;20049;-79
2023/02/25 16:21:45;;;;;;;1.00;0.40;;;;;;;4.32;48.48;96457.88;10470472;28;20036;-79
2023/02/25 16:27:19;;;;;;;5.35;0.50;;;;;;;4.37;48.95;96480.28;10471248;28;20032;-79
2023/02/25 16:33:06;;;;;;;1.08;0.38;;;;;;;4.38;48.55;96495.53;10483988;28;20372;-79
2023/02/25 16:38:54;;;;;;;1.27;0.60;;;;;;;4.37;49.22;96489.28;10483392;28;20081;-79
2023/02/25 16:44:46;;;;;;;1.35;0.40;;;;;;;4.38;48.36;96501.06;10499317;28;20066;-78
2023/02/25 16:50:14;;;;;;;1.17;0.57;;;;;;;4.42;48.96;96509.63;10510187;28;20056;-82
2023/02/25 16:55:38;;;;;;;1.48;0.60;;;;;;;4.35;49.64;96514.03;10538518;28;20047;-77
2023/02/25 17:01:01;;;;;;;1.33;0.60;;;;;;;4.32;49.61;96538.00;10525616;28;20047;-76
2023/02/25 17:06:22;;;;;;;1.40;0.52;;;;;;;4.31;49.45;96536.53;10525121;28;20551;-77
2023/02/25 17:11:43;;;;;;;2.92;0.70;;;;;;;4.25;50.39;96541.66;10496901;28;20089;-76
2023/02/25 17:17:04;;;;;;;1.27;0.32;;;;;;;4.23;49.87;96558.06;10510169;28;20478;-75
2023/02/25 17:22:26;;;;;;;1.35;0.68;;;;;;;4.23;49.96;96563.59;10510474;28;20378;-77
2023/02/25 17:27:47;;;;;;;3.22;0.70;;;;;;;4.18;50.36;96572.16;10510180;28;20067;-75
2023/02/25 17:33:21;;;;;;;1.40;0.60;;;;;;;4.10;49.96;96579.88;10524017;28;20058;-78
2023/02/25 17:38:59;;;;;;;1.73;0.60;;;;;;;3.97;49.62;96587.25;10524903;28;20047;-80
2023/02/25 17:44:50;;;;;;;1.65;0.65;;;;;;;3.95;51.05;96587.09;10523445;28;20058;-80
2023/02/25 17:50:28;;;;;;;1.60;0.50;;;;;;;3.96;50.16;96596.13;10518821;28;20067;-79
2023/02/25 17:55:49;;;;;;;1.95;0.47;;;;;;;3.89;50.31;96603.22;10537353;28;20051;-79
2023/02/25 18:01:28;;;;;;;1.27;0.47;;;;;;;3.87;50.58;96616.88;10509055;28;20097;-80
2023/02/25 18:06:51;;;;;;;1.40;0.40;;;;;;;3.82;50.62;96617.13;10516557;28;20036;-77
2023/02/25 18:12:23;;;;;;;2.63;0.70;;;;;;;3.71;50.69;96621.19;10489126;28;20036;-80
2023/02/25 18:17:49;;;;;;;3.58;0.80;;;;;;;3.68;50.85;96625.81;10554679;28;20050;-77
2023/02/25 18:23:13;;;;;;;2.70;0.95;;;;;;;3.65;51.48;96629.00;10544551;28;20039;-78
2023/02/25 18:28:34;;;;;;;2.25;1.02;;;;;;;3.63;51.38;96628.84;10571601;28;20093;-75
2023/02/25 18:33:55;;;;;;;2.20;0.80;;;;;;;3.67;51.52;96638.16;10529588;28;20126;-76
2023/02/25 18:39:16;;;;;;;2.90;1.40;;;;;;;3.60;52.66;96649.31;10543178;28;20040;-74
2023/02/25 18:44:37;;;;;;;1.50;0.70;;;;;;;3.56;52.33;96649.72;10543700;28;20457;-76
2023/02/25 18:49:58;;;;;;;2.42;0.75;;;;;;;3.50;52.54;96654.78;10543178;28;20043;-76
2023/02/25 18:55:30;;;;;;;2.22;0.85;;;;;;;3.43;53.44;96661.88;10522060;28;20042;-77
2023/02/25 19:00:55;;;;;;;2.20;0.73;;;;;;;3.33;54.18;96672.13;10473327;28;20052;-77
2023/02/25 19:06:19;;;;;;;1.35;0.77;;;;;;;3.26;54.30;96672.22;10458980;28;20040;-76
2023/02/25 19:11:40;;;;;;;2.10;0.70;;;;;;;3.22;55.72;96682.94;10486397;28;20045;-75
2023/02/25 19:17:02;;;;;;;1.27;0.50;;;;;;;3.23;54.60;96684.38;10457082;28;20044;-75
2023/02/25 19:22:23;;;;;;;1.38;0.50;;;;;;;3.20;55.48;96693.81;10486323;28;20044;-75
2023/02/25 19:27:44;;;;;;;2.30;0.60;;;;;;;3.15;55.88;96709.28;10471956;28;20467;-76
2023/02/25 19:33:05;;;;;;;2.60;0.60;;;;;;;3.04;55.80;96707.03;10457635;28;20055;-75
2023/02/25 19:38:26;;;;;;;1.30;0.55;;;;;;;2.96;56.23;96723.66;10471471;28;20040;-75
2023/02/25 19:43:47;;;;;;;0.60;0.30;;;;;;;2.89;56.41;96716.19;10472618;28;20482;-75
2023/02/25 19:49:08;;;;;;;0.85;0.30;;;;;;;2.83;56.43;96735.03;10498647;28;20048;-74
2023/02/25 19:54:29;;;;;;;0.95;0.47;;;;;;;2.77;56.54;96734.53;10498296;28;20110;-75
2023/02/25 19:59:50;;;;;;;2.05;0.70;;;;;;;2.70;57.40;96738.06;10498145;28;20409;-76
2023/02/25 20:05:10;;;;;;;3.60;0.70;;;;;;;2.64;58.49;96748.63;10498350;28;20096;-77
2023/02/25 20:10:32;;;;;;;1.70;0.52;;;;;;;2.61;58.26;96749.75;10497853;28;20040;-74
2023/02/25 20:15:59;;;;;;;1.92;0.57;;;;;;;2.57;58.68;96761.91;10497788;28;20067;-75
2023/02/25 20:21:20;;;;;;;2.65;0.47;;;;;;;2.61;58.67;96774.56;10498071;28;20406;-76
2023/02/25 20:26:42;;;;;;;1.20;0.63;;;;;;;2.54;59.50;96765.06;10510845;28;20048;-75
2023/02/25 20:32:03;;;;;;;0.85;0.50;;;;;;;2.51;59.16;96786.22;10498005;28;20178;-76
2023/02/25 20:37:29;;;;;;;1.08;0.50;;;;;;;2.49;60.89;96797.03;10510957;28;20040;-75
2023/02/25 20:42:50;;;;;;;1.67;0.82;;;;;;;2.48;60.36;96803.84;10497863;28;20043;-75
2023/02/25 20:48:30;;;;;;;2.70;1.17;;;;;;;2.45;60.78;96804.97;10496414;28;20452;-75
2023/02/25 20:53:52;;;;;;;1.67;0.98;;;;;;;2.42;61.14;96813.66;10496893;28;20418;-75
2023/02/25 20:59:13;;;;;;;1.77;0.63;;;;;;;2.44;60.85;96817.28;10498028;28;20093;-74
2023/02/25 21:04:34;;;;;;;1.90;0.55;;;;;;;2.39;61.16;96836.78;10497646;28;20543;-75
2023/02/25 21:09:55;;;;;;;1.05;0.45;;;;;;;2.40;61.42;96824.47;10510478;28;20064;-76
2023/02/25 21:15:16;;;;;;;0.95;0.40;;;;;;;2.39;62.43;96832.00;10522853;28;20044;-75
2023/02/25 21:20:37;;;;;;;1.60;0.70;;;;;;;2.38;61.92;96825.03;10510311;28;20047;-75
2023/02/25 21:25:59;;;;;;;1.60;0.40;;;;;;;2.30;62.18;96843.63;10510027;28;20036;-75
2023/02/25 21:31:20;;;;;;;1.42;0.47;;;;;;;2.26;62.81;96846.06;10493001;28;20482;-75
2023/02/25 21:36:41;;;;;;;0.88;0.32;;;;;;;2.28;63.11;96848.97;10509978;28;20048;-76
2023/02/25 21:42:02;;;;;;;1.88;0.30;;;;;;;2.25;62.65;96853.59;10504164;28;20486;-78
2023/02/25 21:47:23;;;;;;;1.33;0.40;;;;;;;2.21;62.91;96853.22;10505984;28;20044;-77
2023/02/25 21:52:44;;;;;;;1.10;0.38;;;;;;;2.28;63.29;96851.72;10529770;28;20044;-78
2023/02/25 21:58:04;;;;;;;1.05;0.45;;;;;;;2.26;63.32;96855.03;10514619;28;20040;-78
2023/02/25 22:03:25;;;;;;;1.48;0.70;;;;;;;2.20;64.75;96860.03;10515701;28;20048;-78
2023/02/25 22:08:46;;;;;;;1.70;0.60;;;;;;;2.21;64.52;96849.75;10531485;28;20539;-78
2023/02/25 22:14:07;;;;;;;1.55;0.50;;;;;;;2.20;64.50;96859.31;10530560;28;20048;-78
2023/02/25 22:19:28;;;;;;;1.35;0.57;;;;;;;2.10;65.11;96858.44;10516258;28;20044;-78
2023/02/25 22:24:48;;;;;;;1.58;0.60;;;;;;;2.11;65.69;96865.41;10516290;28;20055;-78
2023/02/25 22:30:10;;;;;;;1.10;0.50;;;;;;;2.11;64.21;96868.16;10515696;28;20036;-78
2023/02/25 22:35:31;;;;;;;1.45;0.60;;;;;;;2.09;66.15;96868.72;10515522;28;20059;-79
2023/02/25 22:40:51;;;;;;;2.58;0.82;;;;;;;2.09;65.57;96868.00;10529432;28;20040;-79
2023/02/25 22:46:28;;;;;;;2.05;1.15;;;;;;;2.10;65.21;96874.97;10515232;28;20375;-78
2023/02/25 22:51:49;;;;;;;2.28;0.75;;;;;;;2.07;65.12;96878.84;10514577;28;20394;-78
2023/02/25 22:57:11;;;;;;;1.90;1.13;;;;;;;2.05;65.82;96881.44;10500909;28;20058;-79
2023/02/25 23:02:31;;;;;;;2.03;1.02;;;;;;;2.08;65.52;96883.06;10497540;23;20449;-79
2023/02/25 23:08:02;;;;;;;2.85;1.25;;;;;;;2.06;66.23;96885.63;10389041;28;20049;-79
2023/02/25 23:13:57;;;;;;;2.22;1.30;;;;;;;2.03;66.50;96900.50;10378961;28;20487;-79
2023/02/25 23:19:20;;;;;;;3.35;1.48;;;;;;;2.01;66.09;96901.78;10376404;28;20399;-79
2023/02/25 23:24:41;;;;;;;2.50;1.30;;;;;;;2.05;66.03;96915.19;10390201;28;20046;-79
2023/02/25 23:30:03;;;;;;;2.53;1.27;;;;;;;2.02;66.75;96910.78;10375948;28;20048;-79
2023/02/25 23:35:25;;;;;;;3.13;1.15;;;;;;;1.97;66.57;96926.22;10362272;28;20041;-79
2023/02/25 23:40:46;;;;;;;1.92;1.33;;;;;;;1.90;66.83;96918.00;10389443;28;20051;-79
2023/02/25 23:46:07;;;;;;;1.77;0.95;;;;;;;1.89;66.67;96922.75;10375366;28;20380;-79
2023/02/25 23:51:28;;;;;;;1.63;0.90;;;;;;;1.87;66.56;96919.84;10374895;28;20041;-79
2023/02/25 23:56:49;;;;;;;1.65;0.50;;;;;;;1.76;66.92;96925.75;10375036;28;20111;-79
